Time;durP1;ratioP1;P1;durP2;ratioP2;P2;SDS_P1;SDS_P2;PMS_P1;PMS_P2;Temp;Humidity;BMP_temperature;BMP_pressure;BME280_temperature;BME280_humidity;BME280_pressure;Samples;Min_cycle;Max_cycle;Signal;HPM_P1;HPM_P2
2023/06/29 00:02:08;;;;;;;11.05;4.53;;;15.50;82.70;;;;;;5075625;28;20063;-91
2023/06/29 00:04:35;;;;;;;8.63;4.53;;;15.50;82.90;;;;;;5066580;28;20132;-91
2023/06/29 00:07:03;;;;;;;10.23;4.60;;;15.50;83.00;;;;;;5075262;28;20057;-91
2023/06/29 00:09:31;;;;;;;8.77;4.45;;;15.60;83.00;;;;;;5058693;28;20497;-92
2023/06/29 00:11:58;;;;;;;10.13;4.00;;;15.60;82.40;;;;;;5075172;28;20032;-91
2023/06/29 00:14:26;;;;;;;8.88;4.30;;;15.70;81.80;;;;;;5075210;28;20037;-90
2023/06/29 00:16:53;;;;;;;9.50;4.73;;;15.60;82.00;;;;;;5058213;28;20039;-89
2023/06/29 00:19:20;;;;;;;7.93;3.97;;;15.60;82.40;;;;;;5058267;28;20051;-91
2023/06/29 00:21:48;;;;;;;10.20;4.38;;;15.60;82.50;;;;;;5075326;28;20055;-91
2023/06/29 00:24:15;;;;;;;10.48;4.45;;;15.60;82.80;;;;;;5066156;28;20127;-91
2023/06/29 00:26:42;;;;;;;12.65;4.95;;;15.70;82.70;;;;;;5075031;28;20093;-91
2023/06/29 00:29:09;;;;;;;7.73;4.57;;;15.80;82.70;;;;;;5058220;28;20037;-91
2023/06/29 00:31:36;;;;;;;6.80;3.63;;;15.80;82.60;;;;;;5058052;28;20052;-91
2023/06/29 00:34:03;;;;;;;8.73;4.20;;;15.70;82.00;;;;;;5058346;28;20520;-92
2023/06/29 00:36:32;;;;;;;12.02;4.72;;;15.80;82.10;;;;;;5074518;28;20047;-91
2023/06/29 00:38:59;;;;;;;10.60;4.38;;;15.80;82.20;;;;;;5074593;28;20048;-91
2023/06/29 00:41:26;;;;;;;8.83;3.93;;;15.80;82.20;;;;;;5074440;28;20059;-92
2023/06/29 00:43:53;;;;;;;10.95;4.30;;;15.80;81.90;;;;;;5057932;28;20143;-92
2023/06/29 00:46:21;;;;;;;8.80;4.38;;;15.80;81.70;;;;;;5074669;28;20121;-92
2023/06/29 00:48:50;;;;;;;10.45;4.20;;;15.80;82.10;;;;;;5074543;28;20044;-91
2023/06/29 00:51:17;;;;;;;7.60;3.95;;;15.80;81.90;;;;;;5058087;28;20455;-91
2023/06/29 00:53:45;;;;;;;10.77;4.63;;;15.80;82.10;;;;;;5058033;28;20044;-90
2023/06/29 00:56:12;;;;;;;11.00;4.70;;;15.70;82.20;;;;;;5057546;28;20067;-91
2023/06/29 00:58:40;;;;;;;10.85;4.50;;;15.70;82.60;;;;;;5054358;28;20447;-91
2023/06/29 01:01:08;;;;;;;8.07;4.07;;;15.70;82.30;;;;;;5057926;28;20041;-91
2023/06/29 01:03:36;;;;;;;9.82;4.00;;;15.60;82.40;;;;;;5074718;28;20497;-91
2023/06/29 01:06:06;;;;;;;9.63;4.37;;;15.60;82.30;;;;;;5057759;28;20098;-90
2023/06/29 01:08:40;;;;;;;10.52;4.20;;;15.80;81.90;;;;;;5057430;28;20106;-90
2023/06/29 01:11:10;;;;;;;8.15;4.30;;;15.80;81.90;;;;;;5057447;28;20471;-88
2023/06/29 01:13:39;;;;;;;10.65;5.00;;;15.80;81.90;;;;;;5066985;28;20094;-88
2023/06/29 01:16:08;;;;;;;10.02;4.53;;;15.90;81.80;;;;;;5074267;28;20048;-88
2023/06/29 01:18:36;;;;;;;8.87;4.40;;;15.90;81.90;;;;;;5062652;28;20433;-88
2023/06/29 01:21:04;;;;;;;9.18;4.60;;;15.80;81.80;;;;;;5069849;28;20040;-88
2023/06/29 01:23:36;;;;;;;10.52;4.97;;;15.80;82.10;;;;;;5057575;28;20575;-88
2023/06/29 01:26:07;;;;;;;9.93;5.15;;;15.90;82.30;;;;;;5073039;28;20055;-87
2023/06/29 01:28:38;;;;;;;8.75;4.55;;;15.90;82.30;;;;;;5073136;28;20048;-88
2023/06/29 01:31:09;;;;;;;8.23;3.90;;;16.00;82.20;;;;;;5065289;28;20036;-91
2023/06/29 01:33:37;;;;;;;8.82;4.65;;;16.00;82.10;;;;;;5058364;28;20094;-91
2023/06/29 01:36:24;;;;;;;12.15;5.28;;;16.00;82.00;;;;;;5073152;28;20071;-90
2023/06/29 01:39:05;;;;;;;11.10;4.72;;;16.00;82.10;;;;;;5056720;28;20068;-91
2023/06/29 01:41:41;;;;;;;11.00;4.82;;;15.90;82.00;;;;;;5070017;28;20047;-91
2023/06/29 01:44:14;;;;;;;9.63;4.60;;;15.90;81.90;;;;;;5069873;28;20075;-90
2023/06/29 01:46:43;;;;;;;10.73;4.82;;;15.90;82.20;;;;;;5073547;28;20442;-91
2023/06/29 01:49:12;;;;;;;10.25;5.03;;;15.90;81.90;;;;;;5064075;28;20040;-91
2023/06/29 01:51:42;;;;;;;11.75;5.32;;;15.90;82.20;;;;;;5056547;28;20040;-90
2023/06/29 01:54:10;;;;;;;10.48;5.10;;;16.00;82.30;;;;;;5072454;28;20560;-90
2023/06/29 01:56:37;;;;;;;9.10;4.80;;;16.00;82.30;;;;;;5073425;28;20495;-90
2023/06/29 01:59:04;;;;;;;11.20;5.35;;;16.00;82.00;;;;;;5090793;28;20036;-90
2023/06/29 02:01:32;;;;;;;11.25;5.78;;;16.00;82.00;;;;;;5072880;28;20068;-90
2023/06/29 02:03:59;;;;;;;10.20;5.95;;;16.10;82.10;;;;;;5076652;28;20077;-90
2023/06/29 02:06:29;;;;;;;10.57;5.95;;;16.00;81.90;;;;;;5072867;28;20045;-90
2023/06/29 02:08:56;;;;;;;13.40;6.33;;;16.00;82.30;;;;;;5056681;28;20055;-87
2023/06/29 02:11:23;;;;;;;10.48;5.38;;;16.00;82.00;;;;;;5055981;28;20044;-87
2023/06/29 02:13:50;;;;;;;12.57;6.05;;;16.00;82.10;;;;;;5056558;28;20394;-88
2023/06/29 02:16:18;;;;;;;12.25;6.57;;;15.90;82.30;;;;;;5056720;28;20048;-88
2023/06/29 02:18:46;;;;;;;12.88;6.53;;;15.90;82.60;;;;;;5073019;28;20089;-90
2023/06/29 02:21:13;;;;;;;14.50;6.17;;;16.00;82.60;;;;;;5059937;28;20032;-90
2023/06/29 02:23:42;;;;;;;13.23;6.90;;;16.00;82.70;;;;;;5056641;28;20098;-91
2023/06/29 02:26:09;;;;;;;13.90;6.93;;;16.00;82.60;;;;;;5056348;28;20048;-90
2023/06/29 02:28:36;;;;;;;14.35;6.80;;;16.00;82.60;;;;;;5056738;28;20040;-90
2023/06/29 02:31:03;;;;;;;11.60;6.60;;;16.00;82.70;;;;;;5073246;28;20557;-91
2023/06/29 02:33:31;;;;;;;11.67;6.40;;;16.00;82.90;;;;;;5073134;28;20041;-90
2023/06/29 02:35:58;;;;;;;10.75;6.57;;;16.10;82.90;;;;;;5059823;28;20037;-91
2023/06/29 02:38:25;;;;;;;15.82;6.78;;;16.10;82.70;;;;;;5056129;28;20553;-90
2023/06/29 02:40:53;;;;;;;12.63;6.53;;;16.10;82.40;;;;;;5075519;28;20075;-91
2023/06/29 02:43:20;;;;;;;15.07;7.45;;;16.10;82.60;;;;;;5080386;28;20047;-91
2023/06/29 02:45:47;;;;;;;10.87;6.80;;;16.10;82.60;;;;;;5060249;28;20040;-91
2023/06/29 02:48:15;;;;;;;13.38;6.65;;;16.10;82.60;;;;;;5060059;28;20067;-91
2023/06/29 02:50:42;;;;;;;14.40;7.03;;;16.20;82.70;;;;;;5060178;28;20463;-89
2023/06/29 02:53:13;;;;;;;12.85;7.50;;;16.20;82.60;;;;;;5060411;28;20040;-89
2023/06/29 02:55:40;;;;;;;15.60;8.02;;;16.30;82.60;;;;;;5076631;28;20051;-92
2023/06/29 02:58:08;;;;;;;14.57;8.40;;;16.30;82.50;;;;;;5076963;28;20041;-92
2023/06/29 03:00:36;;;;;;;12.48;7.63;;;16.30;82.60;;;;;;5077031;28;20047;-91
2023/06/29 03:03:03;;;;;;;12.25;8.13;;;16.30;82.60;;;;;;5060244;28;20037;-91
2023/06/29 03:05:31;;;;;;;13.43;7.35;;;16.30;82.50;;;;;;5061175;28;20525;-92
2023/06/29 03:08:02;;;;;;;14.23;7.55;;;16.30;82.40;;;;;;5076904;28;20044;-92
2023/06/29 03:10:29;;;;;;;11.67;7.73;;;16.40;82.40;;;;;;5060222;28;20044;-92
2023/06/29 03:12:56;;;;;;;15.52;7.90;;;16.40;82.30;;;;;;5076733;28;20037;-89
2023/06/29 03:15:24;;;;;;;12.52;7.15;;;16.40;82.30;;;;;;5073600;28;20474;-93
2023/06/29 03:17:53;;;;;;;14.70;8.60;;;16.50;82.40;;;;;;5074146;28;20032;-88
2023/06/29 03:20:20;;;;;;;13.55;7.35;;;16.40;82.30;;;;;;5093513;28;20132;-92
2023/06/29 03:22:48;;;;;;;11.40;7.03;;;16.50;82.20;;;;;;5072001;28;20045;-92
2023/06/29 03:25:17;;;;;;;14.10;7.57;;;16.50;82.00;;;;;;5056656;28;20083;-92
2023/06/29 03:27:44;;;;;;;19.65;9.27;;;16.50;82.00;;;;;;5056474;28;20052;-93
2023/06/29 03:30:12;;;;;;;13.57;8.07;;;16.50;82.40;;;;;;5067158;28;20048;-86
2023/06/29 03:32:39;;;;;;;12.10;7.88;;;16.50;82.60;;;;;;5075423;28;20041;-87
2023/06/29 03:35:07;;;;;;;14.60;8.87;;;16.50;82.50;;;;;;5075098;28;20075;-87
2023/06/29 03:37:34;;;;;;;14.02;8.30;;;16.50;82.60;;;;;;5061337;28;20450;-87
2023/06/29 03:40:01;;;;;;;15.02;8.15;;;16.50;82.50;;;;;;5067948;28;20041;-86
2023/06/29 03:42:29;;;;;;;15.05;8.43;;;16.50;82.40;;;;;;5057987;28;20529;-87
2023/06/29 03:44:56;;;;;;;15.82;8.75;;;16.50;82.30;;;;;;5063221;28;20040;-87
2023/06/29 03:47:23;;;;;;;15.77;7.80;;;16.50;82.40;;;;;;5092657;28;20567;-87
2023/06/29 03:49:50;;;;;;;15.10;8.13;;;16.50;82.40;;;;;;5068222;28;20131;-87
2023/06/29 03:52:17;;;;;;;14.77;9.00;;;16.50;82.30;;;;;;5058494;28;20079;-88
2023/06/29 03:54:44;;;;;;;15.65;9.57;;;16.60;82.40;;;;;;5059175;28;20041;-88
2023/06/29 03:57:11;;;;;;;16.05;9.77;;;16.50;82.60;;;;;;5077984;28;20041;-87
2023/06/29 03:59:38;;;;;;;15.47;9.00;;;16.30;83.00;;;;;;5065555;28;20053;-92
2023/06/29 04:02:06;;;;;;;16.67;9.77;;;16.30;83.00;;;;;;5100004;28;20044;-92
2023/06/29 04:04:35;;;;;;;17.10;9.68;;;16.40;82.90;;;;;;5077356;28;20066;-91
2023/06/29 04:07:05;;;;;;;18.58;10.27;;;16.40;82.80;;;;;;5058889;28;20045;-91
2023/06/29 04:09:32;;;;;;;17.83;10.00;;;16.50;83.00;;;;;;5075241;28;20044;-92
2023/06/29 04:11:59;;;;;;;17.57;10.17;;;16.50;83.10;;;;;;5058943;28;20079;-92
2023/06/29 04:14:26;;;;;;;18.25;11.93;;;16.50;83.20;;;;;;5058923;28;20124;-92
2023/06/29 04:16:53;;;;;;;19.45;11.07;;;16.50;83.60;;;;;;5054859;28;20039;-92
2023/06/29 04:19:21;;;;;;;16.42;10.52;;;16.60;83.70;;;;;;5058882;28;20041;-92
2023/06/29 04:21:48;;;;;;;19.25;10.45;;;16.60;83.40;;;;;;5062289;28;20140;-91
2023/06/29 04:24:15;;;;;;;20.53;10.93;;;16.60;83.20;;;;;;5058734;28;20051;-92
2023/06/29 04:26:42;;;;;;;17.90;11.30;;;16.60;83.20;;;;;;5058206;28;20076;-94
2023/06/29 04:29:09;;;;;;;16.60;10.43;;;16.60;83.30;;;;;;5058222;28;20052;-94
2023/06/29 04:31:36;;;;;;;19.15;11.85;;;16.70;83.00;;;;;;5058176;28;20040;-94
2023/06/29 04:34:03;;;;;;;17.33;10.95;;;16.70;82.90;;;;;;5058140;28;20044;-92
2023/06/29 04:36:31;;;;;;;21.67;13.47;;;16.70;83.00;;;;;;5069383;28;20391;-92
2023/06/29 04:38:58;;;;;;;21.17;12.75;;;16.70;83.10;;;;;;5058606;28;20090;-92
2023/06/29 04:41:31;;;;;;;20.42;10.98;;;16.80;83.10;;;;;;5074964;28;20052;-92
2023/06/29 04:43:59;;;;;;;20.65;11.73;;;16.80;83.20;;;;;;5058625;28;20044;-93
2023/06/29 04:46:30;;;;;;;16.85;9.82;;;16.80;83.00;;;;;;5058670;28;20044;-93
2023/06/29 04:49:04;;;;;;;17.33;10.43;;;16.80;82.90;;;;;;5059071;28;20437;-93
2023/06/29 04:51:34;;;;;;;20.90;10.23;;;16.90;82.80;;;;;;5058400;28;20044;-93
2023/06/29 04:54:05;;;;;;;16.13;10.00;;;16.80;82.40;;;;;;5058551;28;20041;-91
2023/06/29 04:56:32;;;;;;;17.75;10.48;;;16.80;82.60;;;;;;5058167;28;20045;-93
2023/06/29 04:59:00;;;;;;;18.55;10.88;;;16.80;82.70;;;;;;5058268;28;20436;-93
2023/06/29 05:01:27;;;;;;;17.07;11.40;;;16.80;82.70;;;;;;5074585;28;20098;-93
2023/06/29 05:03:54;;;;;;;22.08;12.02;;;16.90;82.90;;;;;;5057481;28;20044;-94
2023/06/29 05:06:21;;;;;;;17.77;10.52;;;16.90;82.80;;;;;;5074862;28;20414;-92
2023/06/29 05:08:48;;;;;;;18.58;11.18;;;16.90;83.00;;;;;;5058244;28;20055;-92
2023/06/29 05:11:16;;;;;;;20.27;12.23;;;17.00;83.20;;;;;;5058069;28;20045;-93
2023/06/29 05:13:43;;;;;;;18.87;11.00;;;17.00;83.20;;;;;;5057892;28;20045;-93
2023/06/29 05:16:10;;;;;;;19.42;9.48;;;17.00;83.30;;;;;;5058388;28;20040;-90
2023/06/29 05:18:37;;;;;;;22.17;11.93;;;17.00;83.00;;;;;;5058279;28;20040;-90
2023/06/29 05:21:04;;;;;;;16.70;11.23;;;17.10;83.10;;;;;;5058626;28;20041;-90
2023/06/29 05:23:31;;;;;;;16.95;11.07;;;17.10;83.10;;;;;;5092422;28;20045;-90
2023/06/29 05:25:58;;;;;;;17.80;10.83;;;17.20;82.90;;;;;;5058208;28;20041;-90
2023/06/29 05:28:25;;;;;;;21.63;11.70;;;17.20;82.60;;;;;;5057988;28;20577;-90
2023/06/29 05:30:53;;;;;;;23.30;12.68;;;17.30;82.20;;;;;;5058296;28;20112;-90
2023/06/29 05:33:20;;;;;;;18.50;11.48;;;17.30;82.50;;;;;;5058245;28;20044;-90
2023/06/29 05:35:47;;;;;;;18.55;10.73;;;17.30;82.60;;;;;;5058074;28;20045;-89
2023/06/29 05:38:14;;;;;;;20.50;10.47;;;17.30;82.60;;;;;;5058267;28;20067;-90
2023/06/29 05:40:41;;;;;;;19.55;10.80;;;17.40;82.30;;;;;;5058958;28;20055;-89
2023/06/29 05:43:09;;;;;;;21.63;12.40;;;17.40;81.80;;;;;;5055038;28;20454;-88
2023/06/29 05:45:36;;;;;;;19.73;11.43;;;17.40;81.50;;;;;;5074911;28;20040;-88
2023/06/29 05:48:04;;;;;;;20.15;12.75;;;17.40;81.50;;;;;;5053652;28;20259;-88
2023/06/29 05:50:31;;;;;;;19.17;10.67;;;17.40;81.30;;;;;;5072912;28;20037;-88
2023/06/29 05:52:58;;;;;;;21.30;11.55;;;17.40;81.00;;;;;;5072816;28;20036;-88
2023/06/29 05:55:25;;;;;;;18.65;11.40;;;17.30;81.60;;;;;;5055246;28;20036;-88
2023/06/29 05:57:52;;;;;;;15.75;10.13;;;17.30;81.80;;;;;;5074800;28;20047;-88
2023/06/29 06:00:19;;;;;;;18.60;10.07;;;17.30;81.50;;;;;;5067150;28;20525;-88
2023/06/29 06:02:46;;;;;;;18.87;10.27;;;17.30;81.30;;;;;;5095082;28;20045;-87
2023/06/29 06:05:14;;;;;;;19.00;10.93;;;17.30;81.10;;;;;;5110007;28;20044;-89
2023/06/29 06:07:41;;;;;;;19.17;10.40;;;17.30;81.30;;;;;;5109527;28;20090;-87
2023/06/29 06:10:08;;;;;;;17.63;10.20;;;17.40;81.40;;;;;;5109955;28;20048;-88
2023/06/29 06:12:35;;;;;;;19.88;10.35;;;17.50;81.20;;;;;;5126733;28;20071;-87
2023/06/29 06:15:04;;;;;;;18.67;9.77;;;17.50;81.30;;;;;;5113131;28;20040;-87
2023/06/29 06:17:31;;;;;;;17.05;10.50;;;17.70;80.90;;;;;;5096623;28;20402;-86
2023/06/29 06:19:58;;;;;;;17.77;10.60;;;17.90;80.60;;;;;;5113117;28;20139;-86
2023/06/29 06:22:25;;;;;;;15.07;9.90;;;18.10;79.70;;;;;;5113063;28;20142;-86
2023/06/29 06:24:52;;;;;;;20.10;10.63;;;18.20;79.40;;;;;;5113095;28;20051;-87
2023/06/29 06:27:19;;;;;;;17.33;9.93;;;18.30;79.10;;;;;;5113245;28;20072;-87
2023/06/29 06:29:46;;;;;;;19.42;11.27;;;18.30;79.50;;;;;;5112700;28;20089;-86
2023/06/29 06:32:13;;;;;;;18.75;10.00;;;18.30;79.80;;;;;;5112866;28;20082;-86
2023/06/29 06:34:41;;;;;;;16.88;9.52;;;18.30;79.60;;;;;;5112723;28;20135;-86
2023/06/29 06:37:08;;;;;;;15.70;10.30;;;18.30;78.20;;;;;;5113139;28;20493;-86
2023/06/29 06:39:36;;;;;;;18.63;10.40;;;18.20;78.20;;;;;;5112567;28;20040;-87
2023/06/29 06:42:03;;;;;;;19.48;11.38;;;18.30;78.30;;;;;;5058750;28;20524;-87
2023/06/29 06:44:31;;;;;;;19.67;10.70;;;18.30;78.80;;;;;;5058323;28;20048;-88
2023/06/29 06:46:58;;;;;;;18.95;10.50;;;18.20;78.40;;;;;;5059422;28;20059;-86
2023/06/29 06:49:25;;;;;;;18.38;10.70;;;18.10;78.90;;;;;;5075855;28;20102;-86
2023/06/29 06:51:52;;;;;;;17.20;10.20;;;18.10;79.20;;;;;;5075419;28;20052;-87
2023/06/29 06:54:20;;;;;;;20.90;10.90;;;18.00;79.30;;;;;;5059128;28;20060;-86
2023/06/29 06:56:48;;;;;;;16.90;11.27;;;17.90;80.20;;;;;;5059073;28;20086;-86
2023/06/29 06:59:15;;;;;;;18.98;11.18;;;17.80;80.30;;;;;;5059082;28;20040;-87
2023/06/29 07:01:43;;;;;;;19.45;12.40;;;17.80;80.30;;;;;;5075846;28;20067;-85
2023/06/29 07:04:11;;;;;;;18.93;12.27;;;17.90;80.70;;;;;;5075617;28;20490;-87
2023/06/29 07:06:38;;;;;;;20.58;12.80;;;18.00;80.50;;;;;;5059229;28;20494;-87
2023/06/29 07:09:07;;;;;;;22.85;13.70;;;18.00;79.90;;;;;;5058897;28;20044;-86
2023/06/29 07:11:36;;;;;;;20.10;13.32;;;18.00;80.30;;;;;;5058832;28;20041;-86
2023/06/29 07:14:04;;;;;;;20.45;13.40;;;18.00;80.30;;;;;;5058664;28;20472;-87
2023/06/29 07:16:31;;;;;;;23.83;14.50;;;18.00;80.50;;;;;;5075935;28;20040;-88
2023/06/29 07:19:03;;;;;;;23.60;15.50;;;17.90;80.10;;;;;;5059413;28;20049;-88
2023/06/29 07:21:50;;;;;;;23.70;14.98;;;17.90;81.00;;;;;;5075906;28;20071;-88
2023/06/29 07:24:21;;;;;;;23.67;14.52;;;17.90;80.70;;;;;;5059433;28;20049;-88
2023/06/29 07:26:48;;;;;;;25.63;14.55;;;17.90;80.50;;;;;;5058102;28;20047;-85
2023/06/29 07:29:15;;;;;;;21.87;13.73;;;18.00;80.60;;;;;;5072355;28;20128;-85
2023/06/29 07:31:42;;;;;;;26.30;15.38;;;18.00;80.50;;;;;;5061334;28;20071;-87
2023/06/29 07:34:09;;;;;;;24.45;15.57;;;17.90;80.50;;;;;;5060696;28;20127;-87
2023/06/29 07:36:37;;;;;;;24.42;15.90;;;17.80;80.70;;;;;;5058696;28;20052;-87
2023/06/29 07:39:04;;;;;;;22.70;15.45;;;17.90;81.10;;;;;;5060100;28;20041;-87
2023/06/29 07:41:33;;;;;;;23.27;15.07;;;18.00;80.90;;;;;;5073966;28;20486;-87
2023/06/29 07:44:01;;;;;;;24.63;14.85;;;18.00;80.60;;;;;;5076394;28;20390;-87
2023/06/29 07:46:28;;;;;;;21.67;12.80;;;18.10;80.70;;;;;;5075318;28;20506;-87
2023/06/29 07:48:55;;;;;;;22.85;13.35;;;18.20;79.60;;;;;;5078233;28;20064;-88
2023/06/29 07:51:22;;;;;;;21.83;13.15;;;18.30;79.30;;;;;;5062768;28;20032;-87
2023/06/29 07:53:52;;;;;;;18.87;12.83;;;18.40;79.20;;;;;;5074553;28;20048;-87
2023/06/29 07:56:19;;;;;;;18.98;11.98;;;18.60;79.20;;;;;;5077090;28;20036;-86
2023/06/29 07:58:46;;;;;;;17.10;11.95;;;18.60;78.40;;;;;;5072878;28;20068;-86
2023/06/29 08:01:13;;;;;;;18.17;11.80;;;18.60;77.90;;;;;;5058615;28;20040;-86
2023/06/29 08:03:41;;;;;;;19.05;14.77;;;18.60;77.60;;;;;;5076402;28;20037;-88
2023/06/29 08:06:28;;;;;;;21.13;15.07;;;18.60;78.20;;;;;;5072078;28;20143;-86
2023/06/29 08:08:58;;;;;;;21.73;15.20;;;18.60;78.80;;;;;;5078046;28;20044;-89
2023/06/29 08:11:27;;;;;;;22.83;15.20;;;18.60;78.50;;;;;;5093056;28;20053;-90
2023/06/29 08:13:54;;;;;;;22.00;16.17;;;18.60;78.80;;;;;;5074376;28;20498;-91
2023/06/29 08:16:21;;;;;;;20.65;15.57;;;18.70;79.10;;;;;;5058269;28;20153;-90
2023/06/29 08:18:49;;;;;;;20.23;14.93;;;18.70;78.80;;;;;;5062416;28;20041;-90
2023/06/29 08:21:18;;;;;;;20.80;14.35;;;18.80;78.30;;;;;;5058566;28;20041;-91
2023/06/29 08:23:48;;;;;;;20.95;14.32;;;18.90;78.70;;;;;;5058079;28;20082;-91
2023/06/29 08:26:16;;;;;;;18.48;13.32;;;19.00;77.60;;;;;;5057436;28;20048;-89
2023/06/29 08:28:43;;;;;;;16.75;12.38;;;19.10;76.20;;;;;;5074493;28;20110;-90
2023/06/29 08:31:12;;;;;;;18.03;11.67;;;19.20;75.90;;;;;;5074625;28;20048;-89
2023/06/29 08:33:39;;;;;;;16.15;12.43;;;19.50;75.50;;;;;;5091045;28;20395;-89
2023/06/29 08:36:06;;;;;;;18.75;11.85;;;20.00;75.90;;;;;;5057768;28;20051;-90
2023/06/29 08:38:33;;;;;;;18.95;11.77;;;20.30;74.40;;;;;;5073297;28;20128;-90
2023/06/29 08:41:03;;;;;;;15.07;10.35;;;20.50;73.00;;;;;;5073692;28;20048;-84
2023/06/29 08:43:31;;;;;;;16.87;10.57;;;20.60;71.90;;;;;;5072980;28;20053;-84
2023/06/29 08:45:58;;;;;;;15.73;10.43;;;20.50;72.30;;;;;;5056529;28;20144;-85
2023/06/29 08:48:26;;;;;;;15.52;10.88;;;20.40;72.20;;;;;;5056609;28;20075;-84
2023/06/29 08:51:04;;;;;;;13.48;10.00;;;20.40;72.70;;;;;;5056377;28;20041;-84
2023/06/29 08:53:31;;;;;;;14.95;11.02;;;20.40;71.60;;;;;;5056424;28;20044;-83
2023/06/29 08:56:00;;;;;;;14.70;9.60;;;20.40;70.80;;;;;;5056689;28;20082;-84
2023/06/29 08:58:30;;;;;;;15.02;10.75;;;20.80;70.90;;;;;;5072586;28;20056;-84
2023/06/29 09:00:57;;;;;;;13.70;9.98;;;21.00;70.00;;;;;;5057162;28;20405;-85
2023/06/29 09:03:26;;;;;;;12.18;9.45;;;21.00;69.80;;;;;;5055986;28;20052;-84
2023/06/29 09:05:56;;;;;;;13.68;8.98;;;21.20;68.90;;;;;;5072669;28;20048;-84
2023/06/29 09:08:24;;;;;;;15.37;9.63;;;21.30;67.90;;;;;;5072441;28;20060;-84
2023/06/29 09:10:51;;;;;;;14.57;9.80;;;21.30;68.80;;;;;;5058601;28;20041;-90
2023/06/29 09:13:19;;;;;;;15.68;10.30;;;21.20;67.90;;;;;;5085674;28;20047;-90
2023/06/29 09:15:48;;;;;;;17.42;11.13;;;21.10;68.70;;;;;;5057547;28;20044;-89
2023/06/29 09:18:15;;;;;;;14.45;8.82;;;21.10;69.80;;;;;;5073813;28;20520;-89
2023/06/29 09:20:44;;;;;;;14.37;9.00;;;21.30;65.70;;;;;;5066410;28;20045;-88
2023/06/29 09:23:13;;;;;;;12.35;8.05;;;21.50;68.10;;;;;;5096195;28;20076;-88
2023/06/29 09:25:41;;;;;;;12.68;8.60;;;21.80;65.40;;;;;;5090522;28;20036;-89
2023/06/29 09:28:08;;;;;;;13.15;9.65;;;21.80;64.90;;;;;;5063242;28;20131;-88
2023/06/29 09:30:39;;;;;;;13.13;8.82;;;22.10;66.40;;;;;;5093190;28;20502;-91
2023/06/29 09:33:15;;;;;;;12.77;7.90;;;22.00;66.20;;;;;;5073450;28;20043;-90
2023/06/29 09:35:49;;;;;;;11.85;8.30;;;21.70;66.80;;;;;;5062374;28;20055;-84
2023/06/29 09:38:16;;;;;;;12.50;8.30;;;21.80;67.80;;;;;;5092316;28;20455;-84
2023/06/29 09:40:54;;;;;;;10.32;7.65;;;22.00;65.20;;;;;;5084205;28;20087;-84
2023/06/29 09:43:28;;;;;;;12.43;8.20;;;22.30;64.20;;;;;;5048311;28;20052;-85
2023/06/29 09:46:07;;;;;;;12.77;8.37;;;22.30;63.30;;;;;;5070781;28;20560;-84
2023/06/29 09:48:45;;;;;;;10.90;8.25;;;22.30;64.30;;;;;;5077740;28;20059;-84
2023/06/29 09:51:22;;;;;;;11.88;8.10;;;22.50;62.90;;;;;;5051747;28;20045;-90
2023/06/29 09:53:50;;;;;;;11.40;8.93;;;22.80;62.90;;;;;;5073062;28;20048;-89
2023/06/29 09:56:17;;;;;;;11.55;8.90;;;23.00;62.80;;;;;;5059357;28;20132;-88
2023/06/29 09:58:45;;;;;;;12.23;8.30;;;23.00;62.90;;;;;;5085749;28;20101;-91
2023/06/29 10:01:15;;;;;;;14.57;7.95;;;23.10;62.20;;;;;;5073000;28;20064;-90
2023/06/29 10:03:44;;;;;;;11.73;7.15;;;23.10;62.00;;;;;;5073170;28;20552;-90
2023/06/29 10:06:15;;;;;;;11.13;7.22;;;22.70;61.80;;;;;;5056497;28;20079;-90
2023/06/29 10:08:44;;;;;;;10.85;7.30;;;22.50;62.60;;;;;;5073675;28;20080;-90
2023/06/29 10:11:14;;;;;;;9.90;6.60;;;22.30;62.50;;;;;;5073460;28;20102;-90
2023/06/29 10:13:47;;;;;;;12.20;7.40;;;22.50;62.60;;;;;;5062597;28;20044;-89
2023/06/29 10:16:19;;;;;;;9.93;7.20;;;22.10;62.30;;;;;;5056574;28;20048;-89
2023/06/29 10:18:47;;;;;;;11.65;7.68;;;22.00;63.30;;;;;;5057094;28;20049;-90
2023/06/29 10:21:15;;;;;;;11.20;8.27;;;22.00;63.50;;;;;;5056710;28;20068;-90
2023/06/29 10:23:44;;;;;;;10.90;6.87;;;22.10;64.20;;;;;;5067523;28;20048;-90
2023/06/29 10:26:12;;;;;;;10.40;6.60;;;22.40;63.70;;;;;;5056365;28;20052;-91
2023/06/29 10:28:39;;;;;;;9.77;5.93;;;22.60;60.60;;;;;;5072518;28;20048;-89
2023/06/29 10:31:06;;;;;;;9.60;5.95;;;22.90;59.80;;;;;;5064746;28;20047;-90
2023/06/29 10:33:46;;;;;;;9.60;6.00;;;23.20;58.80;;;;;;5073077;28;20060;-91
2023/06/29 10:36:15;;;;;;;9.20;6.67;;;23.40;60.10;;;;;;5073098;28;20063;-90
2023/06/29 10:38:42;;;;;;;11.63;6.65;;;23.20;61.40;;;;;;5059122;28;20110;-90
2023/06/29 10:41:27;;;;;;;11.48;6.70;;;22.90;62.10;;;;;;5056279;28;20067;-90
2023/06/29 10:43:57;;;;;;;8.50;6.28;;;22.90;63.80;;;;;;5072774;28;20076;-89
2023/06/29 10:46:44;;;;;;;7.78;5.95;;;23.00;61.80;;;;;;5073346;28;20080;-90
2023/06/29 10:49:25;;;;;;;9.93;6.53;;;22.80;61.40;;;;;;5056232;28;20402;-89
2023/06/29 10:52:04;;;;;;;9.30;6.20;;;22.80;62.00;;;;;;5072725;28;20429;-91
2023/06/29 10:54:31;;;;;;;9.80;5.40;;;22.80;61.30;;;;;;5072724;28;20094;-91
2023/06/29 10:57:06;;;;;;;8.70;5.10;;;23.00;62.40;;;;;;5056583;28;20032;-91
2023/06/29 10:59:34;;;;;;;9.85;5.15;;;23.40;58.10;;;;;;5073241;28;20047;-91
2023/06/29 11:02:03;;;;;;;8.97;5.50;;;23.50;57.20;;;;;;5066606;28;20498;-91
2023/06/29 11:04:31;;;;;;;8.90;5.68;;;23.80;57.00;;;;;;5076919;28;20052;-91
2023/06/29 11:07:06;;;;;;;9.68;5.60;;;23.90;58.40;;;;;;5059426;28;20060;-92
2023/06/29 11:09:34;;;;;;;9.02;5.43;;;24.00;56.20;;;;;;5066570;28;20056;-92
2023/06/29 11:12:04;;;;;;;9.98;5.60;;;24.00;55.50;;;;;;5074835;28;20050;-91
2023/06/29 11:14:38;;;;;;;8.80;5.77;;;24.00;54.80;;;;;;5076146;28;20040;-91
2023/06/29 11:17:08;;;;;;;9.63;5.90;;;24.00;55.80;;;;;;5069707;28;20513;-91
2023/06/29 11:19:36;;;;;;;12.48;5.65;;;24.10;56.40;;;;;;5097789;28;20068;-91
2023/06/29 11:22:03;;;;;;;9.68;5.20;;;24.10;56.90;;;;;;5059454;28;20045;-90
2023/06/29 11:24:30;;;;;;;8.30;5.15;;;24.10;56.30;;;;;;5076142;28;20049;-90
2023/06/29 11:26:58;;;;;;;7.40;4.70;;;24.20;55.20;;;;;;5076182;28;20398;-90
2023/06/29 11:29:27;;;;;;;9.13;5.80;;;24.10;56.40;;;;;;5075221;28;20131;-86
2023/06/29 11:31:54;;;;;;;8.40;5.47;;;23.90;57.70;;;;;;5075288;28;20466;-87
2023/06/29 11:34:21;;;;;;;8.75;5.03;;;24.00;57.10;;;;;;5075139;28;20035;-87
2023/06/29 11:36:49;;;;;;;9.88;5.32;;;24.10;55.30;;;;;;5060955;28;20036;-88
2023/06/29 11:39:36;;;;;;;7.50;5.27;;;24.10;56.00;;;;;;5076117;28;20127;-87
2023/06/29 11:42:09;;;;;;;10.98;5.28;;;24.30;56.00;;;;;;5058212;28;20040;-87
2023/06/29 11:44:36;;;;;;;10.57;4.85;;;24.50;57.10;;;;;;5058136;28;20052;-88
2023/06/29 11:47:04;;;;;;;8.73;5.07;;;24.60;57.40;;;;;;5067787;28;20036;-86
2023/06/29 11:49:53;;;;;;;6.70;5.13;;;24.60;54.50;;;;;;5074598;28;20465;-88
2023/06/29 11:52:21;;;;;;;7.63;4.60;;;24.40;54.60;;;;;;5062199;28;20048;-87
2023/06/29 11:54:49;;;;;;;9.48;5.32;;;24.50;55.00;;;;;;5057793;28;20115;-86
2023/06/29 11:57:17;;;;;;;8.75;4.80;;;24.60;57.00;;;;;;5057078;28;20492;-90
2023/06/29 11:59:45;;;;;;;7.90;4.90;;;24.90;56.40;;;;;;5073723;28;20052;-90
2023/06/29 12:02:16;;;;;;;7.30;4.50;;;24.80;54.50;;;;;;5074073;28;20390;-91
2023/06/29 12:05:01;;;;;;;6.77;4.50;;;24.60;53.80;;;;;;5100107;28;20515;-91
2023/06/29 12:07:40;;;;;;;9.05;4.88;;;24.50;55.10;;;;;;5062449;28;20052;-91
2023/06/29 12:10:10;;;;;;;9.15;4.75;;;24.70;55.20;;;;;;5076216;28;20052;-90
2023/06/29 12:12:46;;;;;;;9.05;4.47;;;25.00;54.60;;;;;;5074701;28;20553;-90
2023/06/29 12:15:18;;;;;;;7.70;4.63;;;25.10;55.80;;;;;;5075154;28;20521;-91
2023/06/29 12:17:47;;;;;;;7.47;4.70;;;25.30;53.60;;;;;;5073358;28;20040;-88
2023/06/29 12:20:19;;;;;;;8.40;5.30;;;25.30;52.30;;;;;;5079973;28;20050;-87
2023/06/29 12:22:48;;;;;;;9.70;4.53;;;25.30;52.60;;;;;;5077803;28;20782;-87
2023/06/29 12:25:49;;;;;;;6.60;4.18;;;25.60;52.30;;;;;;5074364;28;20208;-87
2023/06/29 12:28:17;;;;;;;8.05;4.43;;;25.80;53.30;;;;;;5060110;28;20055;-88
2023/06/29 12:30:45;;;;;;;6.77;4.07;;;25.80;51.70;;;;;;5076732;28;20052;-89
2023/06/29 12:33:13;;;;;;;7.57;4.70;;;25.90;51.40;;;;;;5056896;28;20044;-88
2023/06/29 12:35:41;;;;;;;8.90;4.85;;;26.00;50.60;;;;;;5062892;28;20040;-88
2023/06/29 12:38:11;;;;;;;8.52;4.60;;;25.70;51.80;;;;;;5074645;28;20127;-88
2023/06/29 12:40:38;;;;;;;7.85;4.70;;;25.60;53.60;;;;;;5074189;28;20037;-88
2023/06/29 12:43:05;;;;;;;7.83;4.60;;;25.30;53.30;;;;;;5076085;28;20516;-88
2023/06/29 12:45:34;;;;;;;7.38;4.82;;;25.10;54.20;;;;;;5090424;28;20040;-88